createdAt,value
2022-09-10T00:01:37.902Z,86180.91
2022-09-10T00:04:12.462Z,86190.31
2022-09-10T00:06:40.236Z,86181.75
2022-09-10T00:09:08.398Z,86200.63
2022-09-10T00:11:39.101Z,86195.25
2022-09-10T00:14:07.942Z,86154.28
2022-09-10T00:16:35.279Z,86183.47
2022-09-10T00:19:03.338Z,86196.91
2022-09-10T00:21:30.829Z,86185.69
2022-09-10T00:23:59.554Z,86183.78
2022-09-10T00:26:31.232Z,86179.38
2022-09-10T00:29:02.521Z,86186.16
2022-09-10T00:31:31.814Z,86162.78
2022-09-10T00:34:01.338Z,86177.06
2022-09-10T00:36:33.723Z,86176.06
2022-09-10T00:39:03.770Z,86156.38
2022-09-10T00:41:31.321Z,86186.34
2022-09-10T00:44:01.908Z,86144.72
2022-09-10T00:46:35.232Z,86176.44
2022-09-10T00:49:10.487Z,86159.66
2022-09-10T00:51:38.045Z,86130.16
2022-09-10T00:54:05.906Z,86152.13
2022-09-10T00:56:35.222Z,86182.19
2022-09-10T00:59:05.547Z,86177.19
2022-09-10T01:01:35.935Z,86165.66
2022-09-10T01:04:05.455Z,86168.78
2022-09-10T01:06:33.869Z,86139.41
2022-09-10T01:09:02.555Z,86168.47
2022-09-10T01:11:59.106Z,86175.38
2022-09-10T01:14:33.506Z,86178.09
2022-09-10T01:17:03.854Z,86171.94
2022-09-10T01:19:51.894Z,86171.34
2022-09-10T01:22:58.473Z,86174.13
2022-09-10T01:25:48.698Z,86175.50
2022-09-10T01:28:25.776Z,86179.06
2022-09-10T01:31:02.228Z,86181.81
2022-09-10T01:33:35.338Z,86181.13
2022-09-10T01:36:13.276Z,86163.34
2022-09-10T01:38:44.607Z,86182.34
2022-09-10T01:41:14.433Z,86165.97
2022-09-10T01:43:43.199Z,86176.94
2022-09-10T01:46:30.455Z,86184.69
2022-09-10T01:49:36.888Z,86165.78
2022-09-10T01:52:37.993Z,86183.41
2022-09-10T01:55:37.531Z,86173.88
2022-09-10T01:58:30.535Z,86185.34
2022-09-10T02:01:16.147Z,86166.47
2022-09-10T02:03:48.825Z,86173.38
2022-09-10T02:06:19.852Z,86176.16
2022-09-10T02:08:53.380Z,86176.34
2022-09-10T02:11:21.594Z,86153.00
2022-09-10T02:13:51.265Z,86172.78
2022-09-10T02:16:54.541Z,86169.41
2022-09-10T02:19:22.598Z,86174.31
2022-09-10T02:21:52.524Z,86151.69
2022-09-10T02:24:20.760Z,86175.66
2022-09-10T02:26:49.759Z,86121.44
2022-09-10T02:29:19.885Z,86163.66
2022-09-10T02:31:47.562Z,86142.53
2022-09-10T02:34:19.714Z,86162.25
2022-09-10T02:36:49.600Z,86126.41
2022-09-10T02:39:17.059Z,86144.78
2022-09-10T02:41:45.820Z,86143.44
2022-09-10T02:44:13.206Z,86164.75
2022-09-10T02:46:41.153Z,86124.31
2022-09-10T02:49:09.298Z,86154.91
2022-09-10T02:51:39.227Z,86149.16
2022-09-10T02:54:07.812Z,86145.88
2022-09-10T02:56:35.626Z,86134.53
2022-09-10T02:59:04.230Z,86141.34
2022-09-10T03:01:32.804Z,86130.16
2022-09-10T03:04:03.694Z,86156.56
2022-09-10T03:06:32.646Z,86155.31
2022-09-10T03:09:00.592Z,86170.31
2022-09-10T03:11:27.939Z,86163.63
2022-09-10T03:13:59.477Z,86159.44
2022-09-10T03:16:29.092Z,86151.38
2022-09-10T03:18:56.597Z,86173.25
2022-09-10T03:21:25.687Z,86151.03
2022-09-10T03:23:56.883Z,86157.31
2022-09-10T03:26:29.740Z,86140.59
2022-09-10T03:28:57.812Z,86140.31
2022-09-10T03:31:31.493Z,86163.81
2022-09-10T03:33:59.846Z,86160.94
2022-09-10T03:36:32.170Z,86158.31
2022-09-10T03:39:00.200Z,86126.81
2022-09-10T03:41:31.058Z,86122.84
2022-09-10T03:43:59.987Z,86133.50
2022-09-10T03:46:27.915Z,86153.28
2022-09-10T03:48:59.182Z,86106.72
2022-09-10T03:51:27.638Z,86149.75
2022-09-10T03:53:56.229Z,86153.97
2022-09-10T03:56:24.261Z,86131.97
2022-09-10T03:58:52.354Z,86116.81
2022-09-10T04:01:20.942Z,86157.41
2022-09-10T04:03:49.206Z,86146.59
2022-09-10T04:06:17.679Z,86151.44
2022-09-10T04:08:45.252Z,86130.81
2022-09-10T04:11:15.628Z,86149.28
2022-09-10T04:13:44.141Z,86144.63
2022-09-10T04:16:13.389Z,86154.81
2022-09-10T04:18:42.959Z,85936.28
2022-09-10T04:21:10.900Z,86161.00
2022-09-10T04:23:41.389Z,86144.53
2022-09-10T04:26:19.690Z,86163.56
2022-09-10T04:28:49.363Z,86164.38
2022-09-10T04:31:17.842Z,86137.50
2022-09-10T04:33:46.224Z,86156.03
2022-09-10T04:36:15.147Z,86144.00
2022-09-10T04:38:44.890Z,86145.03
2022-09-10T04:41:15.734Z,86134.88
2022-09-10T04:43:44.718Z,86139.38
2022-09-10T04:46:12.871Z,86142.50
2022-09-10T04:48:43.795Z,86136.34
2022-09-10T04:51:16.886Z,86116.63
2022-09-10T04:53:54.467Z,86111.03
2022-09-10T04:56:26.723Z,86139.78
2022-09-10T04:58:54.424Z,86123.38
2022-09-10T05:01:21.837Z,86149.44
2022-09-10T05:03:52.668Z,86145.09
2022-09-10T05:06:20.601Z,86113.66
2022-09-10T05:08:49.558Z,86129.38
2022-09-10T05:11:20.026Z,86114.75
2022-09-10T05:13:48.200Z,86116.38
2022-09-10T05:16:19.378Z,86138.69
2022-09-10T05:18:47.363Z,86100.38
2022-09-10T05:21:15.770Z,86090.84
2022-09-10T05:23:45.860Z,86140.41
2022-09-10T05:26:16.292Z,86131.00
2022-09-10T05:28:44.678Z,86136.47
2022-09-10T05:31:17.424Z,86129.25
2022-09-10T05:33:46.968Z,86132.69
2022-09-10T05:36:14.948Z,86092.81
2022-09-10T05:38:46.318Z,86127.91
2022-09-10T05:41:15.937Z,86133.19
2022-09-10T05:43:48.213Z,86108.03
2022-09-10T05:46:16.392Z,86109.69
2022-09-10T05:48:54.774Z,86132.41
2022-09-10T05:51:22.535Z,86099.13
2022-09-10T05:53:51.424Z,86116.16
2022-09-10T05:56:21.319Z,86115.22
2022-09-10T05:58:49.802Z,86117.38
2022-09-10T06:01:18.975Z,86117.78
2022-09-10T06:03:46.367Z,86122.16
2022-09-10T06:06:14.032Z,86119.66
2022-09-10T06:08:53.642Z,86105.63
2022-09-10T06:11:39.681Z,86111.00
2022-09-10T06:14:07.708Z,86104.63
2022-09-10T06:16:35.546Z,86115.34
2022-09-10T06:19:03.832Z,86091.84
2022-09-10T06:21:32.781Z,86116.34
2022-09-10T06:24:01.063Z,86107.75
2022-09-10T06:26:32.133Z,86117.38
2022-09-10T06:29:05.788Z,86136.97
2022-09-10T06:31:34.884Z,86137.47
2022-09-10T06:34:02.753Z,86130.88
2022-09-10T06:36:32.197Z,86119.81
2022-09-10T06:39:02.079Z,86131.72
2022-09-10T06:41:32.438Z,86118.63
2022-09-10T06:44:08.225Z,86119.44
2022-09-10T06:47:16.012Z,86085.91
2022-09-10T06:49:29.851Z,86088.94
2022-09-10T06:51:58.580Z,86079.41
2022-09-10T06:54:26.598Z,86116.88
2022-09-10T06:56:58.264Z,86108.44
2022-09-10T06:59:26.227Z,86050.78
2022-09-10T07:01:55.112Z,86084.75
2022-09-10T07:04:22.589Z,86055.50
2022-09-10T07:06:51.644Z,86079.78
2022-09-10T07:09:20.076Z,86114.59
2022-09-10T07:11:57.600Z,86119.66
2022-09-10T07:14:26.209Z,86113.63
2022-09-10T07:16:55.727Z,86122.72
2022-09-10T07:19:25.682Z,86128.00
2022-09-10T07:21:52.768Z,86101.84
2022-09-10T07:24:22.117Z,86126.13
2022-09-10T07:27:00.554Z,86130.00
2022-09-10T07:29:32.524Z,86143.59
2022-09-10T07:32:00.575Z,86096.25
2022-09-10T07:34:29.741Z,86120.91
2022-09-10T07:36:57.818Z,86116.94
2022-09-10T07:39:26.079Z,86100.41
2022-09-10T07:41:56.925Z,86122.97
2022-09-10T07:44:28.286Z,86138.97
2022-09-10T07:47:02.176Z,86125.88
2022-09-10T07:49:30.297Z,86108.38
2022-09-10T07:52:00.154Z,86134.38
2022-09-10T07:54:36.848Z,86106.66
2022-09-10T07:57:05.632Z,86127.13
2022-09-10T07:59:34.529Z,86092.00
2022-09-10T08:02:04.277Z,86129.13
2022-09-10T08:04:37.135Z,86117.59
2022-09-10T08:07:10.310Z,86123.13
2022-09-10T08:09:40.480Z,86137.53
2022-09-10T08:12:10.977Z,86131.59
2022-09-10T08:14:38.671Z,86148.41
2022-09-10T08:17:07.910Z,86156.88
2022-09-10T08:19:40.354Z,86138.13
2022-09-10T08:22:12.836Z,86119.47
2022-09-10T08:24:48.601Z,86135.66
2022-09-10T08:27:17.712Z,86150.31
2022-09-10T08:29:46.598Z,86160.28
2022-09-10T08:32:14.345Z,86164.81
2022-09-10T08:34:41.908Z,86161.88
2022-09-10T08:37:13.287Z,86148.41
2022-09-10T08:39:41.064Z,86172.75
2022-09-10T08:42:23.141Z,86148.50
2022-09-10T08:45:00.274Z,86159.16
2022-09-10T08:47:51.491Z,86159.75
2022-09-10T08:50:38.114Z,86159.75
2022-09-10T08:53:33.378Z,86165.97
2022-09-10T08:56:12.032Z,86150.13
2022-09-10T08:59:17.632Z,86156.28
2022-09-10T09:01:55.337Z,86154.03
2022-09-10T09:04:36.152Z,86143.94
2022-09-10T09:07:15.380Z,86136.00
2022-09-10T09:09:45.776Z,86126.16
2022-09-10T09:12:28.329Z,86135.31
2022-09-10T09:15:10.017Z,86126.81
2022-09-10T09:17:59.829Z,86128.59
2022-09-10T09:20:49.437Z,86126.56
2022-09-10T09:23:24.118Z,86124.78
2022-09-10T09:26:05.613Z,86105.22
2022-09-10T09:28:42.368Z,86129.78
2022-09-10T09:31:26.204Z,86113.41
2022-09-10T09:34:20.773Z,86122.66
2022-09-10T09:36:54.615Z,86133.41
2022-09-10T09:39:38.679Z,86115.31
2022-09-10T09:42:33.419Z,86092.69
2022-09-10T09:45:24.428Z,86115.22
2022-09-10T09:47:55.056Z,86087.72
2022-09-10T09:50:23.251Z,86076.81
2022-09-10T09:52:57.355Z,86068.13
2022-09-10T09:55:30.905Z,86092.75
2022-09-10T09:58:30.056Z,86096.50
2022-09-10T10:01:07.105Z,86093.97
2022-09-10T10:03:52.559Z,86091.34
2022-09-10T10:06:24.740Z,86093.50
2022-09-10T10:08:58.844Z,86061.66
2022-09-10T10:11:51.181Z,86089.66
2022-09-10T10:14:23.601Z,86082.41
2022-09-10T10:16:57.392Z,86070.63
2022-09-10T10:19:38.865Z,86067.75
2022-09-10T10:22:18.279Z,86071.47
2022-09-10T10:24:48.859Z,86079.00
2022-09-10T10:27:34.302Z,86079.00
2022-09-10T10:30:04.735Z,86054.78
2022-09-10T10:32:44.701Z,86066.88
2022-09-10T10:35:35.273Z,86067.50
2022-09-10T10:38:14.686Z,86036.50
2022-09-10T10:40:57.301Z,86067.59
2022-09-10T10:43:41.818Z,86019.88
2022-09-10T10:46:22.632Z,86037.78
2022-09-10T10:49:03.537Z,86054.78
2022-09-10T10:52:03.936Z,86044.53
2022-09-10T10:54:58.924Z,86041.59
2022-09-10T10:57:38.852Z,86043.66
2022-09-10T11:00:15.441Z,86026.78
2022-09-10T11:03:11.122Z,86052.91
2022-09-10T11:05:45.390Z,86057.53
2022-09-10T11:08:20.691Z,86021.69
2022-09-10T11:11:02.807Z,86051.97
2022-09-10T11:13:36.249Z,86024.81
2022-09-10T11:16:20.264Z,86032.69
2022-09-10T11:18:58.671Z,86035.28
2022-09-10T11:21:49.535Z,86021.22
2022-09-10T11:24:25.403Z,86033.09
2022-09-10T11:27:14.615Z,85998.47
2022-09-10T11:30:04.698Z,86028.53
2022-09-10T11:32:35.069Z,86039.88
2022-09-10T11:35:34.657Z,86025.25
2022-09-10T11:38:13.175Z,86001.59
2022-09-10T11:41:07.454Z,86027.13
2022-09-10T11:43:45.974Z,86021.88
2022-09-10T11:46:18.939Z,86010.78
2022-09-10T11:49:20.448Z,86017.94
2022-09-10T11:51:49.191Z,85993.81
2022-09-10T11:54:19.447Z,86008.88
2022-09-10T11:56:53.371Z,86006.19
2022-09-10T11:59:42.741Z,86011.44
2022-09-10T12:02:38.730Z,86022.34
2022-09-10T12:05:22.737Z,86017.81
2022-09-10T12:08:18.652Z,86017.81
2022-09-10T12:11:04.745Z,85986.25
2022-09-10T12:13:37.262Z,85986.41
2022-09-10T12:16:19.358Z,86019.63
2022-09-10T12:18:51.068Z,86008.28
2022-09-10T12:21:32.551Z,86010.31
2022-09-10T12:24:03.802Z,85982.31
2022-09-10T12:26:43.244Z,85992.06
2022-09-10T12:29:34.555Z,85996.91
2022-09-10T12:32:17.281Z,85988.66
2022-09-10T12:34:48.728Z,85966.81
2022-09-10T12:37:23.047Z,85968.09
2022-09-10T12:40:26.289Z,85970.91
2022-09-10T12:43:00.433Z,85970.97
2022-09-10T12:46:02.654Z,85971.91
2022-09-10T12:48:32.225Z,85964.53
2022-09-10T12:51:00.714Z,85953.84
2022-09-10T12:53:44.218Z,85956.06
2022-09-10T12:56:37.783Z,85957.72
2022-09-10T12:59:18.444Z,85952.72
2022-09-10T13:01:49.107Z,85937.59
2022-09-10T13:04:37.911Z,85937.88
2022-09-10T13:07:22.016Z,85954.63
2022-09-10T13:10:06.530Z,85956.66
2022-09-10T13:12:37.690Z,85913.72
2022-09-10T13:15:06.783Z,85926.44
2022-09-10T13:18:01.399Z,85940.19
2022-09-10T13:20:33.320Z,85934.63
2022-09-10T13:23:06.092Z,85942.78
2022-09-10T13:25:48.850Z,85940.19
2022-09-10T13:28:32.888Z,85933.97
2022-09-10T13:31:06.330Z,85905.09
2022-09-10T13:33:53.668Z,85914.91
2022-09-10T13:36:45.471Z,85918.31
2022-09-10T13:39:28.383Z,85937.53
2022-09-10T13:42:12.477Z,85915.88
2022-09-10T13:45:01.272Z,85915.75
2022-09-10T13:47:47.685Z,85900.72
2022-09-10T13:50:26.138Z,85924.66
2022-09-10T13:52:58.672Z,85925.06
2022-09-10T13:55:30.369Z,85929.94
2022-09-10T13:58:04.897Z,85923.03
2022-09-10T14:00:57.222Z,85908.56
2022-09-10T14:03:33.537Z,85911.41
2022-09-10T14:06:08.125Z,85895.47
2022-09-10T14:09:04.230Z,85878.84
2022-09-10T14:11:35.944Z,85888.88
2022-09-10T14:14:10.266Z,85916.13
2022-09-10T14:16:44.065Z,85911.56
2022-09-10T14:19:42.695Z,85906.94
2022-09-10T14:22:22.405Z,85895.66
2022-09-10T14:24:54.394Z,85909.22
2022-09-10T14:27:31.947Z,85904.38
2022-09-10T14:30:21.464Z,85915.06
2022-09-10T14:32:49.687Z,85903.50
2022-09-10T14:35:41.154Z,85906.25
2022-09-10T14:38:31.897Z,85914.88
2022-09-10T14:41:08.518Z,85914.88
2022-09-10T14:43:40.953Z,85908.09
2022-09-10T14:46:13.460Z,85879.25
2022-09-10T14:49:01.798Z,85903.34
2022-09-10T14:51:30.899Z,85873.91
2022-09-10T14:53:59.194Z,85897.81
2022-09-10T14:56:35.909Z,85895.41
2022-09-10T14:59:11.709Z,85897.94
2022-09-10T15:01:41.870Z,85864.94
2022-09-10T15:04:17.648Z,85897.38
2022-09-10T15:06:45.504Z,85902.75
2022-09-10T15:09:15.986Z,85883.94
2022-09-10T15:12:09.285Z,85885.75
2022-09-10T15:14:37.370Z,85908.91
2022-09-10T15:17:05.722Z,85901.91
2022-09-10T15:19:33.423Z,85901.53
2022-09-10T15:22:00.883Z,85889.78
2022-09-10T15:24:29.268Z,85913.84
2022-09-10T15:26:56.774Z,85894.09
2022-09-10T15:29:26.287Z,85912.44
2022-09-10T15:31:53.857Z,85898.97
2022-09-10T15:34:21.874Z,85911.75
2022-09-10T15:36:49.259Z,85879.50
2022-09-10T15:39:17.205Z,85899.47
2022-09-10T15:41:45.296Z,85895.72
2022-09-10T15:44:13.710Z,85900.81
2022-09-10T15:46:45.396Z,85883.78
2022-09-10T15:49:13.899Z,85827.47
2022-09-10T15:51:41.754Z,85803.81
2022-09-10T15:54:12.018Z,85858.13
2022-09-10T15:56:39.904Z,85883.47
2022-09-10T15:59:08.896Z,85891.25
2022-09-10T16:01:38.853Z,85853.00
2022-09-10T16:04:06.760Z,85897.47
2022-09-10T16:06:39.776Z,85832.25
2022-09-10T16:09:10.077Z,85851.59
2022-09-10T16:11:39.343Z,85854.06
2022-09-10T16:14:08.224Z,85894.38
2022-09-10T16:16:37.343Z,85896.84
2022-09-10T16:19:05.934Z,85903.84
2022-09-10T16:21:36.825Z,85903.97
2022-09-10T16:24:06.069Z,85890.41
2022-09-10T16:26:40.168Z,85896.41
2022-09-10T16:29:16.613Z,85886.91
2022-09-10T16:31:46.542Z,85896.16
2022-09-10T16:34:17.758Z,85855.13
2022-09-10T16:36:49.645Z,85906.66
2022-09-10T16:39:17.986Z,85887.41
2022-09-10T16:41:51.022Z,85903.66
2022-09-10T16:44:19.666Z,85893.75
2022-09-10T16:46:47.597Z,85906.84
2022-09-10T16:49:18.529Z,85860.09
2022-09-10T16:51:49.134Z,85923.13
2022-09-10T16:54:20.170Z,85926.97
2022-09-10T16:56:48.948Z,85904.59
2022-09-10T16:59:26.488Z,85886.78
2022-09-10T17:01:55.055Z,85937.59
2022-09-10T17:04:28.826Z,85933.63
2022-09-10T17:06:57.977Z,85902.59
2022-09-10T17:09:28.208Z,85916.38
2022-09-10T17:11:56.283Z,85919.06
2022-09-10T17:14:23.746Z,85941.88
2022-09-10T17:16:52.435Z,85943.25
2022-09-10T17:19:23.632Z,85941.56
2022-09-10T17:21:53.604Z,85915.09
2022-09-10T17:24:23.262Z,85937.81
2022-09-10T17:26:51.506Z,85934.66
2022-09-10T17:29:24.247Z,85897.63
2022-09-10T17:31:52.385Z,85915.91
2022-09-10T17:34:21.658Z,85940.63
2022-09-10T17:36:50.050Z,85924.50
2022-09-10T17:39:18.064Z,85939.72
2022-09-10T17:41:46.466Z,85919.63
2022-09-10T17:44:14.705Z,85936.44
2022-09-10T17:46:43.107Z,85945.13
2022-09-10T17:49:13.591Z,85953.81
2022-09-10T17:51:42.592Z,85905.19
2022-09-10T17:54:11.292Z,85956.72
2022-09-10T17:56:39.381Z,85964.03
2022-09-10T17:59:06.765Z,85958.88
2022-09-10T18:01:39.279Z,85929.69
2022-09-10T18:04:08.896Z,85951.72
2022-09-10T18:06:37.071Z,85963.00
2022-09-10T18:09:05.850Z,85948.53
2022-09-10T18:11:37.047Z,85927.03
2022-09-10T18:14:05.149Z,85967.06
2022-09-10T18:16:34.251Z,85972.22
2022-09-10T18:19:11.573Z,85969.53
2022-09-10T18:21:41.583Z,85936.84
2022-09-10T18:24:14.716Z,85937.06
2022-09-10T18:26:45.141Z,85933.56
2022-09-10T18:29:18.214Z,85929.47
2022-09-10T18:31:48.607Z,85956.25
2022-09-10T18:34:23.273Z,85957.47
2022-09-10T18:36:57.731Z,85952.94
2022-09-10T18:39:28.270Z,85978.91
2022-09-10T18:41:57.365Z,85980.97
2022-09-10T18:44:27.604Z,85976.09
2022-09-10T18:46:56.218Z,85946.34
2022-09-10T18:49:25.295Z,85962.84
2022-09-10T18:51:54.566Z,85933.91
2022-09-10T18:54:23.600Z,85974.88
2022-09-10T18:56:51.538Z,85940.91
2022-09-10T18:59:20.911Z,85965.91
2022-09-10T19:01:50.703Z,85961.50
2022-09-10T19:04:22.065Z,85966.94
2022-09-10T19:06:51.241Z,85965.88
2022-09-10T19:09:24.631Z,85960.44
2022-09-10T19:11:54.071Z,85951.81
2022-09-10T19:14:26.272Z,85966.19
2022-09-10T19:16:55.457Z,85943.75
2022-09-10T19:19:25.224Z,85967.81
2022-09-10T19:21:56.305Z,85963.19
2022-09-10T19:24:43.920Z,85945.84
2022-09-10T19:27:14.809Z,85965.41
2022-09-10T19:29:43.805Z,85961.34
2022-09-10T19:32:11.525Z,85955.69
2022-09-10T19:34:39.107Z,85951.75
2022-09-10T19:37:07.859Z,85954.00
2022-09-10T19:39:38.105Z,85968.38
2022-09-10T19:42:07.460Z,85941.09
2022-09-10T19:44:34.974Z,85958.19
2022-09-10T19:47:04.249Z,85958.75
2022-09-10T19:49:32.144Z,85961.31
2022-09-10T19:51:59.488Z,85952.41
2022-09-10T19:54:28.349Z,85920.84
2022-09-10T19:56:56.720Z,85951.13
2022-09-10T19:59:24.221Z,85959.94
2022-09-10T20:01:52.512Z,85934.81
2022-09-10T20:04:20.043Z,85957.44
2022-09-10T20:06:47.897Z,85955.41
2022-09-10T20:09:15.232Z,85954.03
2022-09-10T20:11:43.033Z,85951.31
2022-09-10T20:14:13.392Z,85949.31
2022-09-10T20:16:44.516Z,85960.06
2022-09-10T20:19:14.338Z,85956.00
2022-09-10T20:21:42.471Z,85962.41
2022-09-10T20:24:12.321Z,85944.72
2022-09-10T20:26:41.270Z,85958.13
2022-09-10T20:29:13.293Z,85959.34
2022-09-10T20:31:43.670Z,85937.25
2022-09-10T20:34:22.065Z,85963.53
2022-09-10T20:36:56.645Z,85952.97
2022-09-10T20:39:27.935Z,85943.16
2022-09-10T20:41:58.257Z,85940.44
2022-09-10T20:44:26.699Z,85935.88
2022-09-10T20:46:54.682Z,85924.03
2022-09-10T20:49:22.891Z,85964.78
2022-09-10T20:51:50.059Z,85968.19
2022-09-10T20:54:19.065Z,85912.78
2022-09-10T20:56:46.971Z,85977.63
2022-09-10T20:59:19.367Z,85969.94
2022-09-10T21:01:47.789Z,85972.16
2022-09-10T21:04:15.370Z,85929.34
2022-09-10T21:06:43.448Z,85944.41
2022-09-10T21:09:11.659Z,85973.84
2022-09-10T21:11:39.541Z,85939.75
2022-09-10T21:14:08.792Z,85891.94
2022-09-10T21:16:39.188Z,85976.06
2022-09-10T21:19:09.703Z,85934.19
2022-09-10T21:21:39.609Z,85978.94
2022-09-10T21:24:10.498Z,85978.88
2022-09-10T21:26:39.762Z,85968.00
2022-09-10T21:29:10.896Z,85963.63
2022-09-10T21:31:38.905Z,85975.97
2022-09-10T21:34:06.795Z,85932.94
2022-09-10T21:36:36.474Z,85970.41
2022-09-10T21:39:06.927Z,85944.59
2022-09-10T21:41:43.599Z,85968.97
2022-09-10T21:44:17.386Z,85971.88
2022-09-10T21:46:46.074Z,85974.78
2022-09-10T21:49:14.364Z,85944.28
2022-09-10T21:51:42.564Z,85940.59
2022-09-10T21:54:19.056Z,85968.94
2022-09-10T21:56:47.566Z,85979.03
2022-09-10T21:59:16.229Z,85967.66
2022-09-10T22:01:46.526Z,85952.03
2022-09-10T22:04:19.973Z,85981.94
2022-09-10T22:06:48.784Z,85989.81
2022-09-10T22:09:16.814Z,85992.03
2022-09-10T22:11:47.130Z,85971.63
2022-09-10T22:14:16.537Z,85974.19
2022-09-10T22:16:48.093Z,85968.81
2022-09-10T22:19:21.801Z,85995.41
2022-09-10T22:21:50.348Z,85998.41
2022-09-10T22:24:19.039Z,85999.06
2022-09-10T22:26:49.811Z,85914.56
2022-09-10T22:29:19.131Z,85993.44
2022-09-10T22:31:47.165Z,85977.25
2022-09-10T22:34:16.721Z,85996.56
2022-09-10T22:36:46.692Z,85990.75
2022-09-10T22:39:16.646Z,85985.66
2022-09-10T22:41:45.601Z,85970.00
2022-09-10T22:44:13.578Z,85997.59
2022-09-10T22:46:41.824Z,86004.47
2022-09-10T22:49:10.157Z,85997.78
2022-09-10T22:51:41.083Z,85994.03
2022-09-10T22:54:09.025Z,85974.88
2022-09-10T22:56:36.697Z,85978.38
2022-09-10T22:59:04.904Z,85983.06
2022-09-10T23:01:35.713Z,85971.16
2022-09-10T23:04:05.268Z,85990.13
2022-09-10T23:06:34.416Z,85980.94
2022-09-10T23:09:08.155Z,85986.03
2022-09-10T23:11:38.488Z,85974.97
2022-09-10T23:14:09.885Z,85965.47
2022-09-10T23:16:39.410Z,85955.84
2022-09-10T23:19:11.487Z,85970.72
2022-09-10T23:21:43.110Z,85965.09
2022-09-10T23:24:14.385Z,85964.91
2022-09-10T23:26:42.794Z,85966.47
2022-09-10T23:29:10.994Z,85969.25
2022-09-10T23:31:41.443Z,85973.53
2022-09-10T23:34:13.176Z,85950.72
2022-09-10T23:36:44.157Z,85970.63
2022-09-10T23:39:18.096Z,85969.34
2022-09-10T23:41:46.858Z,85959.31
2022-09-10T23:44:15.073Z,85921.69
2022-09-10T23:46:45.219Z,85961.03
2022-09-10T23:49:13.066Z,85947.78
2022-09-10T23:51:40.308Z,85961.38
2022-09-10T23:54:09.346Z,85940.91
2022-09-10T23:56:37.283Z,85893.00
2022-09-10T23:59:05.609Z,85955.50
